Time;durP1;ratioP1;P1;durP2;ratioP2;P2;SDS_P1;SDS_P2;PMS_P1;PMS_P2;Temp;Humidity;BMP_temperature;BMP_pressure;BME280_temperature;BME280_humidity;BME280_pressure;Samples;Min_cycle;Max_cycle;Signal;HPM_P1;HPM_P2
2023/11/05 00:00:33;;;;;;;0.65;0.30;;;8.00;98.40;;;;;;4986960;28;20048;-68
2023/11/05 00:02:58;;;;;;;0.30;0.30;;;8.00;98.60;;;;;;4985941;28;20042;-68
2023/11/05 00:05:23;;;;;;;0.47;0.38;;;8.00;98.80;;;;;;4983143;28;20041;-68
2023/11/05 00:07:49;;;;;;;0.45;0.43;;;8.00;98.90;;;;;;4986362;28;20070;-68
2023/11/05 00:10:14;;;;;;;0.73;0.47;;;8.00;99.00;;;;;;4984319;28;20038;-69
2023/11/05 00:12:40;;;;;;;0.30;0.30;;;7.90;99.10;;;;;;4979390;28;20042;-69
2023/11/05 00:15:07;;;;;;;0.60;0.40;;;7.90;99.20;;;;;;4980529;28;20042;-70
2023/11/05 00:17:33;;;;;;;0.43;0.30;;;7.80;99.30;;;;;;4990026;28;20146;-68
2023/11/05 00:19:59;;;;;;;2.42;0.40;;;7.80;99.40;;;;;;4987243;28;20066;-68
2023/11/05 00:22:25;;;;;;;0.63;0.30;;;7.80;99.40;;;;;;4990102;28;20534;-70
2023/11/05 00:24:50;;;;;;;0.45;0.40;;;7.80;99.40;;;;;;4985605;28;20031;-69
2023/11/05 00:27:16;;;;;;;0.80;0.40;;;7.80;99.40;;;;;;4983929;28;20050;-69
2023/11/05 00:29:41;;;;;;;0.63;0.40;;;7.80;99.50;;;;;;4986414;28;20038;-69
2023/11/05 00:32:07;;;;;;;0.28;0.28;;;7.80;99.50;;;;;;4984025;28;20030;-69
2023/11/05 00:34:32;;;;;;;0.65;0.50;;;7.80;99.50;;;;;;4989207;28;20030;-69
2023/11/05 00:36:58;;;;;;;0.30;0.30;;;7.80;99.60;;;;;;4984696;28;20763;-68
2023/11/05 00:39:23;;;;;;;0.13;0.13;;;7.90;99.60;;;;;;4985676;28;20113;-68
2023/11/05 00:41:49;;;;;;;0.50;0.45;;;7.80;99.60;;;;;;4983526;28;20406;-69
2023/11/05 00:44:14;;;;;;;1.95;0.28;;;7.80;99.70;;;;;;4983244;28;20061;-68
2023/11/05 00:46:40;;;;;;;0.85;0.52;;;7.90;99.80;;;;;;4986435;28;20045;-69
2023/11/05 00:49:05;;;;;;;0.20;0.20;;;7.90;99.70;;;;;;4985350;28;20038;-69
2023/11/05 00:51:31;;;;;;;0.90;0.60;;;8.00;99.80;;;;;;4990040;28;20132;-68
2023/11/05 00:53:56;;;;;;;0.40;0.40;;;7.90;99.70;;;;;;4988617;28;20036;-69
2023/11/05 00:56:22;;;;;;;0.55;0.30;;;8.10;99.90;;;;;;4985241;28;20030;-68
2023/11/05 00:58:47;;;;;;;0.63;0.30;;;8.10;99.80;;;;;;4988318;28;20034;-70
2023/11/05 01:01:13;;;;;;;0.50;0.35;;;8.10;99.80;;;;;;4985723;28;20463;-69
2023/11/05 01:03:38;;;;;;;0.68;0.38;;;8.10;99.90;;;;;;4991871;28;20503;-68
2023/11/05 01:06:04;;;;;;;1.45;0.63;;;8.10;99.80;;;;;;4988889;28;20105;-68
2023/11/05 01:08:30;;;;;;;0.88;0.32;;;8.10;99.90;;;;;;4993263;28;20033;-70
2023/11/05 01:10:55;;;;;;;0.40;0.40;;;8.10;99.90;;;;;;4978985;28;20061;-68
2023/11/05 01:13:20;;;;;;;0.20;0.20;;;8.10;99.90;;;;;;4974342;28;20126;-68
2023/11/05 01:15:46;;;;;;;0.30;0.30;;;8.20;99.90;;;;;;4978417;28;20172;-69
2023/11/05 01:18:11;;;;;;;0.43;0.40;;;8.20;99.90;;;;;;4986752;28;20034;-69
2023/11/05 01:20:37;;;;;;;0.63;0.40;;;8.20;99.90;;;;;;4988064;28;20026;-69
2023/11/05 01:23:02;;;;;;;0.38;0.30;;;8.20;99.90;;;;;;4985113;28;20022;-69
2023/11/05 01:25:28;;;;;;;0.30;0.30;;;8.30;99.90;;;;;;4983805;28;20462;-69
2023/11/05 01:27:53;;;;;;;0.52;0.32;;;8.20;99.90;;;;;;4977111;28;20089;-69
2023/11/05 01:30:19;;;;;;;0.20;0.20;;;8.20;99.90;;;;;;4978447;28;20030;-68
2023/11/05 01:32:44;;;;;;;2.33;0.38;;;8.30;99.90;;;;;;4986471;28;20469;-69
2023/11/05 01:35:10;;;;;;;0.70;0.35;;;8.30;99.90;;;;;;4988731;28;20047;-70
2023/11/05 01:37:36;;;;;;;0.98;0.60;;;8.30;99.90;;;;;;4983900;28;20113;-69
2023/11/05 01:40:02;;;;;;;0.30;0.30;;;8.30;99.90;;;;;;4978153;28;20034;-69
2023/11/05 01:42:28;;;;;;;2.22;0.50;;;8.20;99.90;;;;;;4986819;28;20590;-68
2023/11/05 01:44:53;;;;;;;0.43;0.30;;;8.20;99.90;;;;;;4984857;28;20038;-69
2023/11/05 01:47:19;;;;;;;0.35;0.30;;;8.30;99.90;;;;;;4985338;28;20465;-69
2023/11/05 01:49:44;;;;;;;0.57;0.40;;;8.20;99.90;;;;;;4989233;28;20081;-69
2023/11/05 01:52:10;;;;;;;0.60;0.30;;;8.30;99.90;;;;;;4985079;28;20090;-69
2023/11/05 01:54:41;;;;;;;0.60;0.50;;;8.30;99.90;;;;;;4989648;28;20038;-69
2023/11/05 01:57:07;;;;;;;1.02;0.55;;;8.20;99.90;;;;;;4989868;28;20062;-72
2023/11/05 01:59:32;;;;;;;0.25;0.20;;;8.30;99.90;;;;;;4988747;28;20492;-69
2023/11/05 02:02:00;;;;;;;0.28;0.28;;;8.30;99.90;;;;;;4986314;28;20041;-68
2023/11/05 02:04:26;;;;;;;0.40;0.40;;;8.30;99.90;;;;;;4991046;28;20034;-69
2023/11/05 02:06:51;;;;;;;1.38;0.30;;;8.30;99.90;;;;;;4990627;28;20042;-68
2023/11/05 02:09:17;;;;;;;0.45;0.32;;;8.30;99.90;;;;;;4987605;28;20042;-69
2023/11/05 02:11:42;;;;;;;0.40;0.40;;;8.20;99.90;;;;;;4992364;28;20030;-69
2023/11/05 02:14:15;;;;;;;1.25;0.60;;;8.20;99.90;;;;;;4986901;28;20358;-68
2023/11/05 02:16:40;;;;;;;0.47;0.30;;;8.20;99.90;;;;;;4986430;28;20038;-68
2023/11/05 02:19:06;;;;;;;0.60;0.40;;;8.10;99.90;;;;;;4989197;28;20046;-69
2023/11/05 02:21:46;;;;;;;1.13;0.50;;;8.20;99.90;;;;;;4992460;28;20045;-68
2023/11/05 02:24:11;;;;;;;0.47;0.32;;;8.20;99.90;;;;;;4989685;28;20371;-68
2023/11/05 02:26:37;;;;;;;0.38;0.38;;;8.20;99.90;;;;;;4986583;28;20057;-69
2023/11/05 02:29:02;;;;;;;0.47;0.47;;;8.20;99.90;;;;;;4989494;28;20459;-69
2023/11/05 02:31:28;;;;;;;0.90;0.60;;;8.30;99.90;;;;;;4982588;28;20045;-69
2023/11/05 02:33:54;;;;;;;0.35;0.35;;;8.30;99.90;;;;;;4987917;28;20047;-69
2023/11/05 02:36:19;;;;;;;0.47;0.32;;;8.30;99.90;;;;;;4986445;28;20030;-68
2023/11/05 02:38:45;;;;;;;1.05;0.57;;;8.30;99.90;;;;;;4985733;28;20030;-69
2023/11/05 02:41:12;;;;;;;1.23;0.75;;;8.30;99.90;;;;;;4983654;28;20475;-70
2023/11/05 02:43:38;;;;;;;0.40;0.40;;;8.40;99.90;;;;;;4982409;28;20030;-72
2023/11/05 02:46:04;;;;;;;0.70;0.50;;;8.40;99.90;;;;;;4983056;28;20113;-70
2023/11/05 02:48:30;;;;;;;0.20;0.20;;;8.40;99.90;;;;;;4990597;28;20038;-68
2023/11/05 02:50:55;;;;;;;1.48;0.63;;;8.40;99.90;;;;;;4985862;28;20038;-70
2023/11/05 02:53:21;;;;;;;1.15;0.52;;;8.50;99.90;;;;;;4984722;28;20039;-69
2023/11/05 02:55:47;;;;;;;0.75;0.43;;;8.40;99.90;;;;;;4982836;28;20495;-70
2023/11/05 02:58:14;;;;;;;1.70;0.40;;;8.50;99.90;;;;;;4984503;28;20033;-69
2023/11/05 03:00:39;;;;;;;4.85;0.80;;;8.50;99.90;;;;;;4988705;28;20377;-69
2023/11/05 03:03:05;;;;;;;0.80;0.43;;;8.50;99.90;;;;;;4991222;28;20038;-69
2023/11/05 03:05:30;;;;;;;0.70;0.38;;;8.50;99.80;;;;;;4987443;28;20022;-71
2023/11/05 03:07:56;;;;;;;0.60;0.50;;;8.50;99.80;;;;;;4988779;28;20031;-70
2023/11/05 03:10:21;;;;;;;0.30;0.25;;;8.50;99.80;;;;;;4985651;28;20034;-69
2023/11/05 03:12:47;;;;;;;0.75;0.50;;;8.50;99.70;;;;;;4982313;28;20035;-70
2023/11/05 03:15:12;;;;;;;0.60;0.60;;;8.50;99.80;;;;;;4985521;28;20510;-71
2023/11/05 03:17:38;;;;;;;0.68;0.30;;;8.50;99.70;;;;;;4981935;28;20038;-69
2023/11/05 03:20:07;;;;;;;1.27;0.57;;;8.50;99.60;;;;;;4988450;28;20062;-72
2023/11/05 03:22:37;;;;;;;1.30;0.50;;;8.50;99.70;;;;;;4981917;28;20034;-70
2023/11/05 03:25:03;;;;;;;0.65;0.40;;;8.50;99.70;;;;;;4987703;28;20038;-69
2023/11/05 03:27:29;;;;;;;0.77;0.52;;;8.50;99.70;;;;;;4984128;28;20070;-70
2023/11/05 03:29:55;;;;;;;0.75;0.40;;;8.50;99.70;;;;;;4981274;28;20034;-72
2023/11/05 03:32:20;;;;;;;0.55;0.52;;;8.50;99.60;;;;;;4985256;28;20049;-69
2023/11/05 03:34:46;;;;;;;0.80;0.40;;;8.50;99.60;;;;;;4987097;28;20038;-70
2023/11/05 03:37:11;;;;;;;0.40;0.40;;;8.50;99.60;;;;;;4983348;28;20503;-69
2023/11/05 03:39:37;;;;;;;0.40;0.40;;;8.50;99.70;;;;;;4982770;28;20069;-69
2023/11/05 03:42:03;;;;;;;0.52;0.47;;;8.50;99.70;;;;;;4980929;28;20037;-69
2023/11/05 03:44:29;;;;;;;0.63;0.57;;;8.50;99.70;;;;;;4987611;28;20498;-70
2023/11/05 03:46:56;;;;;;;0.73;0.50;;;8.50;99.70;;;;;;4980340;28;20045;-70
2023/11/05 03:49:22;;;;;;;0.60;0.45;;;8.50;99.70;;;;;;4988408;28;20417;-69
2023/11/05 03:51:47;;;;;;;0.40;0.40;;;8.50;99.60;;;;;;4984346;28;20043;-69
2023/11/05 03:54:13;;;;;;;0.30;0.30;;;8.50;99.60;;;;;;4985521;28;20042;-69
2023/11/05 03:56:40;;;;;;;0.47;0.35;;;8.50;99.60;;;;;;4983570;28;20056;-69
2023/11/05 03:59:06;;;;;;;0.40;0.40;;;8.50;99.60;;;;;;4981385;28;20062;-70
2023/11/05 04:01:31;;;;;;;0.60;0.52;;;8.60;99.60;;;;;;4983404;28;20116;-69
2023/11/05 04:03:57;;;;;;;0.25;0.25;;;8.60;99.50;;;;;;4988242;28;20035;-69
2023/11/05 04:06:22;;;;;;;0.50;0.40;;;8.50;99.50;;;;;;4985990;28;20042;-68
2023/11/05 04:08:47;;;;;;;0.50;0.40;;;8.50;99.40;;;;;;4982257;28;20109;-69
2023/11/05 04:11:13;;;;;;;0.40;0.30;;;8.60;99.50;;;;;;4980755;28;20487;-70
2023/11/05 04:13:39;;;;;;;0.30;0.30;;;8.60;99.50;;;;;;4983883;28;20044;-68
2023/11/05 04:16:05;;;;;;;0.55;0.52;;;8.60;99.50;;;;;;4983519;28;20494;-69
2023/11/05 04:18:31;;;;;;;0.25;0.25;;;8.50;99.50;;;;;;4981433;28;20050;-69
2023/11/05 04:20:56;;;;;;;0.45;0.45;;;8.60;99.60;;;;;;4987711;28;20380;-70
2023/11/05 04:23:22;;;;;;;0.38;0.38;;;8.60;99.60;;;;;;4987066;28;20038;-69
2023/11/05 04:25:47;;;;;;;0.63;0.32;;;8.60;99.40;;;;;;4989347;28;20038;-69
2023/11/05 04:28:13;;;;;;;0.98;0.50;;;8.60;99.50;;;;;;4977257;28;20037;-69
2023/11/05 04:30:38;;;;;;;0.50;0.47;;;8.60;99.50;;;;;;4986376;28;20030;-68
2023/11/05 04:33:04;;;;;;;0.40;0.40;;;8.60;99.50;;;;;;4990359;28;20030;-70
2023/11/05 04:35:30;;;;;;;0.63;0.30;;;8.60;99.40;;;;;;4987944;28;20467;-69
2023/11/05 04:37:56;;;;;;;0.43;0.30;;;8.60;99.30;;;;;;4987523;28;20033;-69
2023/11/05 04:40:22;;;;;;;0.47;0.47;;;8.60;99.40;;;;;;4989690;28;20427;-69
2023/11/05 04:42:49;;;;;;;1.63;0.63;;;8.60;99.40;;;;;;4978352;28;20422;-70
2023/11/05 04:45:15;;;;;;;0.30;0.30;;;8.60;99.50;;;;;;4976645;28;20374;-70
2023/11/05 04:47:40;;;;;;;0.88;0.50;;;8.60;99.50;;;;;;4992739;28;20034;-68
2023/11/05 04:50:07;;;;;;;0.95;0.38;;;8.60;99.50;;;;;;4986878;28;20420;-69
2023/11/05 04:52:32;;;;;;;0.85;0.52;;;8.60;99.40;;;;;;4982188;28;20113;-69
2023/11/05 04:54:59;;;;;;;1.08;0.38;;;8.60;99.40;;;;;;4983141;28;20117;-69
2023/11/05 04:57:25;;;;;;;0.68;0.50;;;8.60;99.50;;;;;;4984911;28;20026;-71
2023/11/05 04:59:50;;;;;;;1.05;0.60;;;8.60;99.50;;;;;;4978365;28;20029;-69
2023/11/05 05:02:16;;;;;;;0.73;0.40;;;8.70;99.40;;;;;;4985128;28;20026;-70
2023/11/05 05:04:41;;;;;;;0.55;0.50;;;8.60;99.40;;;;;;4983802;28;20132;-69
2023/11/05 05:07:07;;;;;;;0.52;0.40;;;8.60;99.30;;;;;;4988713;28;20077;-71
2023/11/05 05:09:33;;;;;;;1.83;0.50;;;8.60;99.40;;;;;;4985296;28;20034;-69
2023/11/05 05:11:58;;;;;;;0.85;0.60;;;8.60;99.40;;;;;;4989822;28;20485;-69
2023/11/05 05:14:25;;;;;;;0.68;0.47;;;8.60;99.40;;;;;;4979783;28;20038;-70
2023/11/05 05:16:52;;;;;;;2.38;0.40;;;8.60;99.40;;;;;;4985171;28;20383;-69
2023/11/05 05:19:17;;;;;;;0.43;0.40;;;8.60;99.40;;;;;;4988684;28;20491;-69
2023/11/05 05:21:44;;;;;;;0.50;0.40;;;8.60;99.40;;;;;;4986588;28;20069;-69
2023/11/05 05:24:10;;;;;;;0.47;0.40;;;8.60;99.40;;;;;;4983680;28;20109;-69
2023/11/05 05:26:36;;;;;;;0.70;0.40;;;8.60;99.50;;;;;;4985559;28;20058;-66
2023/11/05 05:29:05;;;;;;;0.80;0.50;;;8.60;99.60;;;;;;4982924;28;20086;-67
2023/11/05 05:31:33;;;;;;;0.28;0.28;;;8.60;99.60;;;;;;4981206;28;20046;-66
2023/11/05 05:33:59;;;;;;;0.70;0.43;;;8.70;99.50;;;;;;4985722;28;20044;-66
2023/11/05 05:36:25;;;;;;;0.50;0.50;;;8.70;99.50;;;;;;4989364;28;20845;-67
2023/11/05 05:38:51;;;;;;;0.90;0.45;;;8.70;99.50;;;;;;4988304;28;20035;-66
2023/11/05 05:41:17;;;;;;;0.60;0.40;;;8.70;99.40;;;;;;4987362;28;20113;-67
2023/11/05 05:43:42;;;;;;;0.38;0.30;;;8.70;99.40;;;;;;4983404;28;20105;-66
2023/11/05 05:46:12;;;;;;;1.00;0.60;;;8.70;99.50;;;;;;4984050;28;20041;-67
2023/11/05 05:48:37;;;;;;;0.93;0.47;;;8.70;99.50;;;;;;4984712;28;20045;-67
2023/11/05 05:51:09;;;;;;;0.70;0.38;;;8.60;99.50;;;;;;4990961;28;20038;-70
2023/11/05 05:53:34;;;;;;;1.27;0.60;;;8.60;99.50;;;;;;4990316;28;20041;-66
2023/11/05 05:56:00;;;;;;;2.30;0.40;;;8.60;99.40;;;;;;4991185;28;20180;-66
2023/11/05 05:58:25;;;;;;;1.23;0.57;;;8.60;99.60;;;;;;4983455;28;20038;-67
2023/11/05 06:00:51;;;;;;;1.52;0.70;;;8.60;99.70;;;;;;4986695;28;20049;-66
2023/11/05 06:03:16;;;;;;;0.73;0.32;;;8.60;99.60;;;;;;4989810;28;20035;-67
2023/11/05 06:05:42;;;;;;;0.70;0.45;;;8.60;99.60;;;;;;4990269;28;20073;-69
2023/11/05 06:08:07;;;;;;;0.60;0.43;;;8.70;99.70;;;;;;4986955;28;20026;-67
2023/11/05 06:10:33;;;;;;;3.30;0.80;;;8.70;99.70;;;;;;4986590;28;20467;-66
2023/11/05 06:12:59;;;;;;;0.35;0.35;;;8.70;99.70;;;;;;4985756;28;20042;-66
2023/11/05 06:15:24;;;;;;;0.50;0.40;;;8.80;99.70;;;;;;4981889;28;20034;-66
2023/11/05 06:17:50;;;;;;;0.30;0.30;;;8.80;99.70;;;;;;4990761;28;20031;-67
2023/11/05 06:20:15;;;;;;;3.63;0.60;;;8.80;99.80;;;;;;4985242;28;20045;-70
2023/11/05 06:22:40;;;;;;;0.43;0.43;;;8.80;99.70;;;;;;4986084;28;20038;-67
2023/11/05 06:25:09;;;;;;;0.38;0.32;;;8.90;99.60;;;;;;4980072;28;20038;-68
2023/11/05 06:27:35;;;;;;;0.38;0.30;;;8.90;99.70;;;;;;4982033;28;20052;-68
2023/11/05 06:30:03;;;;;;;1.52;0.50;;;8.90;99.60;;;;;;4989477;28;20382;-68
2023/11/05 06:32:29;;;;;;;0.90;0.65;;;8.90;99.70;;;;;;4980822;28;20026;-69
2023/11/05 06:34:54;;;;;;;0.43;0.43;;;8.80;99.70;;;;;;4980346;28;20034;-67
2023/11/05 06:37:20;;;;;;;1.40;0.40;;;8.80;99.80;;;;;;4984958;28;20030;-67
2023/11/05 06:39:45;;;;;;;0.32;0.32;;;8.80;99.80;;;;;;4981786;28;20117;-69
2023/11/05 06:42:11;;;;;;;0.43;0.38;;;8.80;99.90;;;;;;4987633;28;20041;-67
2023/11/05 06:44:36;;;;;;;0.63;0.50;;;8.80;99.90;;;;;;4988038;28;20054;-66
2023/11/05 06:47:02;;;;;;;0.50;0.40;;;8.80;99.90;;;;;;4981596;28;20034;-66
2023/11/05 06:49:27;;;;;;;1.05;0.85;;;8.80;99.90;;;;;;4983347;28;20361;-65
2023/11/05 06:51:53;;;;;;;0.40;0.40;;;8.80;99.90;;;;;;4991961;28;20124;-65
2023/11/05 06:54:18;;;;;;;0.95;0.60;;;8.90;99.90;;;;;;4986309;28;20537;-65
2023/11/05 06:56:44;;;;;;;0.57;0.40;;;8.80;99.90;;;;;;4990154;28;20030;-65
2023/11/05 06:59:10;;;;;;;0.30;0.30;;;8.90;99.90;;;;;;4985694;28;20034;-66
2023/11/05 07:01:35;;;;;;;1.05;0.47;;;8.90;99.90;;;;;;4988514;28;20041;-65
2023/11/05 07:04:01;;;;;;;0.47;0.40;;;8.90;99.90;;;;;;4988153;28;20039;-66
2023/11/05 07:06:26;;;;;;;0.57;0.50;;;8.90;99.90;;;;;;4987716;28;20470;-67
2023/11/05 07:08:52;;;;;;;1.17;0.47;;;8.90;99.90;;;;;;4990368;28;20041;-66
2023/11/05 07:11:20;;;;;;;0.47;0.40;;;8.90;99.90;;;;;;4985152;28;20045;-68
2023/11/05 07:13:45;;;;;;;0.40;0.40;;;8.90;99.80;;;;;;4982375;28;20022;-67
2023/11/05 07:16:11;;;;;;;1.02;0.60;;;9.00;99.80;;;;;;4987917;28;20073;-65
2023/11/05 07:18:37;;;;;;;0.35;0.22;;;9.00;99.80;;;;;;4987701;28;20030;-67
2023/11/05 07:21:03;;;;;;;1.80;0.60;;;9.00;99.80;;;;;;4986460;28;20038;-65
2023/11/05 07:23:28;;;;;;;1.80;0.65;;;9.00;99.70;;;;;;4991129;28;20038;-65
2023/11/05 07:25:54;;;;;;;0.43;0.40;;;9.10;99.70;;;;;;4986452;28;20035;-66
2023/11/05 07:28:20;;;;;;;3.22;0.70;;;9.10;99.50;;;;;;4985463;28;20041;-65
2023/11/05 07:30:45;;;;;;;1.40;0.45;;;9.10;99.40;;;;;;4985304;28;20034;-65
2023/11/05 07:33:12;;;;;;;1.83;0.63;;;9.10;99.30;;;;;;4991146;28;20037;-65
2023/11/05 07:35:38;;;;;;;0.75;0.60;;;9.20;99.20;;;;;;4985692;28;20035;-65
2023/11/05 07:38:03;;;;;;;0.40;0.40;;;9.20;99.10;;;;;;4992242;28;20092;-65
2023/11/05 07:40:29;;;;;;;1.10;0.47;;;9.20;99.10;;;;;;4987072;28;20060;-65
2023/11/05 07:42:55;;;;;;;1.42;0.60;;;9.20;99.20;;;;;;4984316;28;20066;-67
2023/11/05 07:45:21;;;;;;;1.45;0.50;;;9.10;99.20;;;;;;4985027;28;20053;-67
2023/11/05 07:47:46;;;;;;;0.82;0.40;;;9.20;99.20;;;;;;4982279;28;20058;-65
2023/11/05 07:50:12;;;;;;;0.20;0.20;;;9.20;99.20;;;;;;4981338;28;20090;-65
2023/11/05 07:52:41;;;;;;;1.55;0.30;;;9.20;99.10;;;;;;4987005;28;20026;-65
2023/11/05 07:55:10;;;;;;;1.27;0.77;;;9.20;99.20;;;;;;4989035;28;20097;-66
2023/11/05 07:57:36;;;;;;;0.47;0.40;;;9.30;99.30;;;;;;4984798;28;20101;-66
2023/11/05 08:00:03;;;;;;;1.08;0.52;;;9.30;99.30;;;;;;4973562;28;20374;-69
2023/11/05 08:02:29;;;;;;;0.40;0.40;;;9.30;99.40;;;;;;4988827;28;20054;-65
2023/11/05 08:04:56;;;;;;;1.75;0.60;;;9.30;99.50;;;;;;4987879;28;21086;-66
2023/11/05 08:07:21;;;;;;;0.30;0.30;;;9.30;99.40;;;;;;4985335;28;20375;-66
2023/11/05 08:09:47;;;;;;;0.95;0.50;;;9.30;99.50;;;;;;4978484;28;20038;-65
2023/11/05 08:12:12;;;;;;;0.63;0.50;;;9.40;99.60;;;;;;4987587;28;20057;-68
2023/11/05 08:14:38;;;;;;;0.65;0.35;;;9.40;99.60;;;;;;4978661;28;20038;-65
2023/11/05 08:17:03;;;;;;;0.40;0.30;;;9.40;99.70;;;;;;4984612;28;20038;-66
2023/11/05 08:19:29;;;;;;;1.08;0.60;;;9.40;99.70;;;;;;4986373;28;20121;-65
2023/11/05 08:21:54;;;;;;;0.45;0.40;;;9.40;99.80;;;;;;4986166;28;20034;-67
2023/11/05 08:24:20;;;;;;;0.40;0.40;;;9.50;99.80;;;;;;4982829;28;20029;-65
2023/11/05 08:26:47;;;;;;;0.30;0.30;;;9.40;99.90;;;;;;4983782;28;20050;-67
2023/11/05 08:29:14;;;;;;;0.57;0.25;;;9.50;99.90;;;;;;4986438;28;20029;-67
2023/11/05 08:31:39;;;;;;;4.00;0.45;;;9.50;99.90;;;;;;4977767;28;20486;-66
2023/11/05 08:34:05;;;;;;;0.70;0.32;;;9.50;99.90;;;;;;4984216;28;20041;-67
2023/11/05 08:36:30;;;;;;;1.67;0.40;;;9.50;99.90;;;;;;4980011;28;20054;-67
2023/11/05 08:38:56;;;;;;;0.73;0.40;;;9.40;99.90;;;;;;4983106;28;20076;-68
2023/11/05 08:41:21;;;;;;;0.65;0.38;;;9.40;99.90;;;;;;4984998;28;20483;-67
2023/11/05 08:43:47;;;;;;;0.38;0.20;;;9.40;99.90;;;;;;4978936;28;20094;-66
2023/11/05 08:46:12;;;;;;;0.38;0.30;;;9.50;99.90;;;;;;4986652;28;20076;-68
2023/11/05 08:48:38;;;;;;;1.23;0.30;;;9.50;99.90;;;;;;4981152;28;20464;-68
2023/11/05 08:51:03;;;;;;;1.50;0.68;;;9.60;99.90;;;;;;4977218;28;20583;-66
2023/11/05 08:53:29;;;;;;;0.40;0.40;;;9.60;99.90;;;;;;4983518;28;20042;-67
2023/11/05 08:55:54;;;;;;;0.30;0.30;;;9.70;99.90;;;;;;4987301;28;20042;-68
2023/11/05 08:58:20;;;;;;;1.17;0.70;;;9.70;99.90;;;;;;4984839;28;20502;-69
2023/11/05 09:00:45;;;;;;;0.82;0.40;;;9.70;99.90;;;;;;4984901;28;20092;-68
2023/11/05 09:03:14;;;;;;;0.80;0.50;;;9.80;99.90;;;;;;4986200;28;20030;-68
2023/11/05 09:05:40;;;;;;;0.45;0.43;;;9.80;99.90;;;;;;4978856;28;23385;-68
2023/11/05 09:08:08;;;;;;;0.90;0.47;;;9.80;99.90;;;;;;4986707;28;20030;-67
2023/11/05 09:10:34;;;;;;;0.40;0.40;;;9.80;99.90;;;;;;4987883;28;20452;-69
2023/11/05 09:12:59;;;;;;;1.10;0.63;;;9.80;99.90;;;;;;4988107;28;20037;-67
2023/11/05 09:15:26;;;;;;;0.55;0.40;;;9.90;99.90;;;;;;4986612;28;20038;-68
2023/11/05 09:17:52;;;;;;;0.85;0.47;;;10.10;99.90;;;;;;4991795;28;20031;-68
2023/11/05 09:20:18;;;;;;;0.28;0.20;;;10.10;99.90;;;;;;4986286;28;20041;-68
2023/11/05 09:22:43;;;;;;;0.60;0.55;;;10.10;99.90;;;;;;4985736;28;20042;-67
2023/11/05 09:25:09;;;;;;;1.60;0.47;;;10.10;99.90;;;;;;4983760;28;20026;-69
2023/11/05 09:27:36;;;;;;;0.77;0.47;;;10.10;99.90;;;;;;4984964;28;20375;-68
2023/11/05 09:30:02;;;;;;;0.50;0.40;;;10.10;99.90;;;;;;4984390;28;20042;-67
2023/11/05 09:32:28;;;;;;;0.47;0.30;;;10.00;99.90;;;;;;4982249;28;20030;-67
2023/11/05 09:34:54;;;;;;;0.75;0.45;;;10.10;99.90;;;;;;4984038;28;20027;-67
2023/11/05 09:37:19;;;;;;;0.57;0.38;;;10.10;99.90;;;;;;4989046;28;20475;-69
2023/11/05 09:39:45;;;;;;;1.67;0.77;;;10.00;99.90;;;;;;4986793;28;20474;-67
2023/11/05 09:42:17;;;;;;;0.68;0.40;;;10.00;99.90;;;;;;4986883;28;20427;-70
2023/11/05 09:44:43;;;;;;;0.77;0.40;;;10.00;99.90;;;;;;4981523;28;20034;-67
2023/11/05 09:47:11;;;;;;;6.07;1.83;;;10.00;99.90;;;;;;4985976;28;20104;-68
2023/11/05 09:49:37;;;;;;;2.17;0.70;;;10.00;99.90;;;;;;4991636;28;20054;-67
2023/11/05 09:52:03;;;;;;;1.23;0.73;;;10.00;99.90;;;;;;4982635;28;20046;-69
2023/11/05 09:54:29;;;;;;;1.27;0.38;;;10.00;99.90;;;;;;4987934;28;20030;-68
2023/11/05 09:56:55;;;;;;;0.45;0.40;;;10.00;99.90;;;;;;4986648;28;20042;-68
2023/11/05 09:59:22;;;;;;;0.65;0.55;;;9.90;99.90;;;;;;4980594;28;20034;-67
2023/11/05 10:01:54;;;;;;;0.32;0.32;;;9.90;99.90;;;;;;4986421;28;20415;-67
2023/11/05 10:04:20;;;;;;;0.20;0.20;;;9.90;99.90;;;;;;4984265;28;20050;-67
2023/11/05 10:06:47;;;;;;;0.68;0.28;;;9.90;99.90;;;;;;4986649;28;20030;-69
2023/11/05 10:09:13;;;;;;;0.73;0.40;;;9.90;99.90;;;;;;4975512;28;20038;-67
2023/11/05 10:11:44;;;;;;;1.33;0.65;;;9.90;99.90;;;;;;4987171;28;20034;-68
2023/11/05 10:14:14;;;;;;;1.67;0.77;;;9.90;99.90;;;;;;4982275;28;20042;-69
2023/11/05 10:16:39;;;;;;;0.47;0.30;;;10.00;99.90;;;;;;4986714;28;20410;-68
2023/11/05 10:19:05;;;;;;;4.00;1.90;;;10.00;99.90;;;;;;4991603;28;20042;-70
2023/11/05 10:21:37;;;;;;;2.90;1.33;;;10.00;99.90;;;;;;4981508;28;20034;-69
2023/11/05 10:24:05;;;;;;;0.90;0.60;;;10.10;99.90;;;;;;4988549;28;20038;-68
2023/11/05 10:26:33;;;;;;;0.43;0.30;;;10.10;99.90;;;;;;4984601;28;20127;-67
2023/11/05 10:29:00;;;;;;;0.40;0.40;;;10.10;99.90;;;;;;4979200;28;20309;-67
2023/11/05 10:31:26;;;;;;;0.82;0.60;;;10.20;99.90;;;;;;4982641;28;20126;-72
2023/11/05 10:33:53;;;;;;;0.50;0.40;;;10.20;99.90;;;;;;4990486;28;20022;-67
2023/11/05 10:36:25;;;;;;;1.33;0.47;;;10.30;99.90;;;;;;4987898;28;20049;-67
2023/11/05 10:38:51;;;;;;;1.10;0.38;;;10.30;99.90;;;;;;4986540;28;20566;-67
2023/11/05 10:41:17;;;;;;;1.58;0.60;;;10.30;99.90;;;;;;4984915;28;20414;-67
2023/11/05 10:43:47;;;;;;;0.35;0.35;;;10.30;99.90;;;;;;4983192;28;20030;-67
2023/11/05 10:46:14;;;;;;;0.77;0.50;;;10.40;99.90;;;;;;4987681;28;20093;-69
2023/11/05 10:48:40;;;;;;;0.35;0.35;;;10.50;99.90;;;;;;4988657;28;20046;-67
2023/11/05 10:51:06;;;;;;;0.32;0.30;;;10.60;99.90;;;;;;4982378;28;20052;-67
2023/11/05 10:53:34;;;;;;;1.45;0.63;;;10.60;99.90;;;;;;4990516;28;20054;-66
2023/11/05 10:56:00;;;;;;;0.85;0.50;;;10.70;99.90;;;;;;4988908;28;20039;-67
2023/11/05 10:58:40;;;;;;;0.68;0.52;;;10.70;99.90;;;;;;4988453;28;20502;-69
2023/11/05 11:01:14;;;;;;;1.13;0.52;;;10.70;99.90;;;;;;4983128;28;20030;-68
2023/11/05 11:03:39;;;;;;;0.55;0.43;;;10.70;99.90;;;;;;4987424;28;20038;-67
2023/11/05 11:06:07;;;;;;;1.52;0.50;;;10.60;99.90;;;;;;4986708;28;20382;-67
2023/11/05 11:08:34;;;;;;;0.32;0.32;;;10.60;99.90;;;;;;4986490;28;20035;-67
2023/11/05 11:11:14;;;;;;;1.23;0.57;;;10.70;99.90;;;;;;4986892;28;20034;-67
2023/11/05 11:13:54;;;;;;;2.00;1.20;;;10.70;99.90;;;;;;4983415;28;20034;-67
2023/11/05 11:16:35;;;;;;;4.55;1.70;;;10.90;99.90;;;;;;4978193;28;20734;-69
2023/11/05 11:19:07;;;;;;;2.40;0.73;;;11.00;99.90;;;;;;4986875;28;21454;-67
2023/11/05 11:21:33;;;;;;;1.98;1.05;;;11.00;99.90;;;;;;4983383;28;20027;-68
2023/11/05 11:24:30;;;;;;;1.80;0.88;;;11.20;99.90;;;;;;4984598;28;20128;-68
2023/11/05 11:27:00;;;;;;;3.38;1.05;;;11.10;99.80;;;;;;4979825;28;20383;-68
2023/11/05 11:29:26;;;;;;;2.80;1.30;;;11.30;99.80;;;;;;4983551;28;20113;-67
2023/11/05 11:31:53;;;;;;;0.50;0.50;;;11.30;99.70;;;;;;4982256;28;20137;-69
2023/11/05 11:34:20;;;;;;;2.42;1.02;;;11.30;99.40;;;;;;4989171;28;20058;-68
2023/11/05 11:36:56;;;;;;;0.32;0.32;;;11.40;99.50;;;;;;4990738;28;20030;-68
2023/11/05 11:39:22;;;;;;;0.43;0.40;;;11.50;99.20;;;;;;4988081;28;20037;-66
2023/11/05 11:41:48;;;;;;;3.05;1.05;;;11.60;99.30;;;;;;4987489;28;20038;-66
2023/11/05 11:44:13;;;;;;;0.43;0.43;;;11.70;99.30;;;;;;4985623;28;20467;-67
2023/11/05 11:46:39;;;;;;;1.33;0.30;;;11.90;99.10;;;;;;4987353;28;20046;-67
2023/11/05 11:49:12;;;;;;;0.47;0.40;;;12.00;99.00;;;;;;4989726;28;20379;-67
2023/11/05 11:51:38;;;;;;;0.57;0.40;;;12.10;98.70;;;;;;4988320;28;20519;-67
2023/11/05 11:54:04;;;;;;;0.10;0.10;;;12.10;98.30;;;;;;4992495;28;20026;-66
2023/11/05 11:56:31;;;;;;;3.10;0.50;;;12.00;98.20;;;;;;4982221;28;20038;-67
2023/11/05 11:59:03;;;;;;;0.57;0.40;;;12.00;98.10;;;;;;4979221;28;20035;-66
2023/11/05 12:01:30;;;;;;;0.30;0.20;;;12.10;98.20;;;;;;4980724;28;20034;-67
2023/11/05 12:03:59;;;;;;;0.43;0.30;;;12.10;98.20;;;;;;4984061;28;20038;-67
2023/11/05 12:06:27;;;;;;;1.05;0.38;;;12.10;98.10;;;;;;4987871;28;20378;-66
2023/11/05 12:08:54;;;;;;;3.45;0.47;;;12.00;97.90;;;;;;4990174;28;20026;-66
2023/11/05 12:11:22;;;;;;;0.10;0.10;;;12.10;98.00;;;;;;4983433;28;20034;-66
2023/11/05 12:13:48;;;;;;;0.25;0.22;;;12.10;98.10;;;;;;4987411;28;20488;-67
2023/11/05 12:16:17;;;;;;;0.25;0.22;;;12.10;97.90;;;;;;4982218;28;20037;-70
2023/11/05 12:18:44;;;;;;;1.00;0.22;;;12.10;97.70;;;;;;4989690;28;20038;-66
2023/11/05 12:21:12;;;;;;;1.05;0.52;;;12.30;98.30;;;;;;4982593;28;20053;-68
2023/11/05 12:23:39;;;;;;;0.40;0.20;;;12.30;98.10;;;;;;4984839;28;20026;-66
2023/11/05 12:26:07;;;;;;;0.35;0.25;;;12.30;98.10;;;;;;4981935;28;20050;-68
2023/11/05 12:28:33;;;;;;;0.30;0.20;;;12.30;97.90;;;;;;4986275;28;20037;-67
2023/11/05 12:31:00;;;;;;;0.82;0.55;;;12.10;97.60;;;;;;4983073;28;20026;-68
2023/11/05 12:33:25;;;;;;;3.47;1.10;;;12.00;97.70;;;;;;4984466;28;20050;-67
2023/11/05 12:35:52;;;;;;;5.57;1.35;;;11.80;97.80;;;;;;4984029;28;20030;-66
2023/11/05 12:38:18;;;;;;;7.18;2.25;;;11.70;98.10;;;;;;4981280;28;20116;-66
2023/11/05 12:40:45;;;;;;;4.22;1.17;;;11.60;98.30;;;;;;4982740;28;20085;-67
2023/11/05 12:43:11;;;;;;;0.65;0.65;;;11.40;98.50;;;;;;4984240;28;20042;-68
2023/11/05 12:45:36;;;;;;;0.93;0.47;;;11.30;99.00;;;;;;4988857;28;20034;-68
2023/11/05 12:48:03;;;;;;;0.38;0.30;;;11.00;99.30;;;;;;4987586;28;20046;-69
2023/11/05 12:50:28;;;;;;;0.60;0.40;;;10.90;99.50;;;;;;4989957;28;20033;-67